| Ora | Descriere | Temp | Se simte | Precipitatii | Umiditate | Vant |
|---|---|---|---|---|---|---|
| 00:00 | Senin | 11.8° | 10.2° | 0% | 78% | SSE 14 KM/H |
| 01:00 | Senin | 11.1° | 9.7° | 0% | 79% | SSE 12.2 KM/H |
| 02:00 | Senin | 10.8° | 9.4° | 0% | 79% | SSE 11.5 KM/H |
| 03:00 | Senin | 10.7° | 9.3° | 0% | 78% | SSE 11.2 KM/H |
| 04:00 | Senin | 10.4° | 8.9° | 0% | 78% | SSE 11.5 KM/H |
| 05:00 | Senin | 10.1° | 8.6° | 0% | 77% | SSE 11.5 KM/H |
| 06:00 | Senin | 10.1° | 8.6° | 0% | 77% | SSE 11.2 KM/H |
| 07:00 | Senin | 11.1° | 9.9° | 0% | 75% | SSE 10.1 KM/H |
| 08:00 | Senin | 13.1° | 12.3° | 0% | 68% | SSE 10.4 KM/H |
| 09:00 | Senin | 15.3° | 15.3° | 0% | 62% | SSE 10.8 KM/H |
| 10:00 | Senin | 16.9° | 16.9° | 0% | 58% | SSE 11.9 KM/H |
| 11:00 | Senin | 18.8° | 18.8° | 0% | 53% | SSE 12.6 KM/H |
| 12:00 | Senin | 20.3° | 20.3° | 0% | 49% | SSE 13.3 KM/H |
| 13:00 | Senin | 21.4° | 21.4° | 0% | 47% | SSE 13.7 KM/H |
| 14:00 | Senin | 22.3° | 24.4° | 0% | 46% | SSE 14 KM/H |
| 15:00 | 22.7° | 24.5° | 0% | 45% | SSE 13.3 KM/H | |
| 16:00 | 22.9° | 24.5° | 0% | 45% | SSE 13 KM/H | |
| 17:00 | Acoperit de nori | 22.5° | 24.4° | 0% | 46% | SSE 15.1 KM/H |
| 18:00 | 21.3° | 21.3° | 0% | 53% | SSE 16.2 KM/H | |
| 19:00 | 19.9° | 19.9° | 0% | 59% | SSE 17.3 KM/H | |
| 20:00 | Senin | 17.7° | 17.7° | 0% | 65% | SE 20.9 KM/H |
| 21:00 | Senin | 15.4° | 15.4° | 0% | 67% | SE 22.3 KM/H |
| 22:00 | Burniță ușoară | 13.7° | 12.3° | 100% | 71% | SE 16.9 KM/H |
| 23:00 | 13.6° | 12.2° | 0% | 66% | SE 16.9 KM/H |